Minto, Canada
Current Conditions -  °F | °C
As of 11:00 PM on Tuesday 21 Oct 2014 (Local Time) from CYBR Reporting Station
Clear Clear  
Wind Chill: 55°   Ceiling: Unl
Heat Index: 55°   Visibility: 15mi
Dew Point: 45°   Wind: 10mph
Humidity: 67%   Direction: 130°SE
Pressure: 29.66"   Gusts: NA
Location:  49.4°N, 100.02°W
Report Text: CYBR 220400Z 13009KT 15SM SKC 13/07 A2966 RMK SLP050 DENSITY ALT 1700FT
Loading
Personal Weather Stations






























Interactive Weather Map
Tropical Storm Tracking
New forecast layout! Learn more

10-Day Weather Forecast

Advertisements
Track Severe Weather on mobile